sensor_id;sensor_type;location;lat;lon;timestamp;P1;durP1;ratioP1;P2;durP2;ratioP2
8401;SDS011;4238;48.404;9.498;2023-08-21T04:02:16;12.60;;;9.85;;
8401;SDS011;4238;48.404;9.498;2023-08-21T04:04:43;9.95;;;9.07;;
8401;SDS011;4238;48.404;9.498;2023-08-21T04:07:11;9.98;;;9.15;;
8401;SDS011;4238;48.404;9.498;2023-08-21T04:09:38;9.70;;;8.70;;
8401;SDS011;4238;48.404;9.498;2023-08-21T04:12:05;12.00;;;10.05;;
8401;SDS011;4238;48.404;9.498;2023-08-21T04:14:32;11.32;;;9.65;;
8401;SDS011;4238;48.404;9.498;2023-08-21T04:16:59;9.60;;;8.80;;
8401;SDS011;4238;48.404;9.498;2023-08-21T04:19:27;9.60;;;8.77;;
8401;SDS011;4238;48.404;9.498;2023-08-21T04:21:57;10.00;;;9.00;;
8401;SDS011;4238;48.404;9.498;2023-08-21T04:24:25;9.63;;;8.85;;
8401;SDS011;4238;48.404;9.498;2023-08-21T04:26:51;10.10;;;9.27;;
8401;SDS011;4238;48.404;9.498;2023-08-21T04:34:30;11.15;;;10.15;;
8401;SDS011;4238;48.404;9.498;2023-08-21T04:36:58;10.80;;;9.88;;
8401;SDS011;4238;48.404;9.498;2023-08-21T04:39:25;11.43;;;10.32;;
8401;SDS011;4238;48.404;9.498;2023-08-21T04:41:52;10.43;;;9.45;;
8401;SDS011;4238;48.404;9.498;2023-08-21T04:44:19;10.87;;;10.00;;
8401;SDS011;4238;48.404;9.498;2023-08-21T04:46:47;10.32;;;9.35;;
8401;SDS011;4238;48.404;9.498;2023-08-21T04:49:14;11.57;;;9.80;;
8401;SDS011;4238;48.404;9.498;2023-08-21T04:51:43;9.73;;;8.73;;
8401;SDS011;4238;48.404;9.498;2023-08-21T04:54:09;9.70;;;8.73;;
8401;SDS011;4238;48.404;9.498;2023-08-21T04:56:36;9.45;;;8.55;;
8401;SDS011;4238;48.404;9.498;2023-08-21T04:59:03;10.27;;;9.35;;
8401;SDS011;4238;48.404;9.498;2023-08-21T05:01:30;9.82;;;9.02;;
8401;SDS011;4238;48.404;9.498;2023-08-21T05:03:57;9.70;;;8.70;;
8401;SDS011;4238;48.404;9.498;2023-08-21T05:06:24;10.85;;;9.77;;
8401;SDS011;4238;48.404;9.498;2023-08-21T05:08:52;10.77;;;9.85;;
8401;SDS011;4238;48.404;9.498;2023-08-21T05:11:19;11.35;;;9.35;;
8401;SDS011;4238;48.404;9.498;2023-08-21T05:13:46;11.10;;;10.02;;
8401;SDS011;4238;48.404;9.498;2023-08-21T05:16:13;11.18;;;10.15;;
8401;SDS011;4238;48.404;9.498;2023-08-21T05:18:39;10.60;;;9.60;;
8401;SDS011;4238;48.404;9.498;2023-08-21T05:21:07;11.20;;;10.20;;
8401;SDS011;4238;48.404;9.498;2023-08-21T05:23:34;12.43;;;11.43;;
8401;SDS011;4238;48.404;9.498;2023-08-21T05:26:02;12.25;;;11.02;;
8401;SDS011;4238;48.404;9.498;2023-08-21T05:28:29;12.57;;;11.48;;
8401;SDS011;4238;48.404;9.498;2023-08-21T05:30:56;11.40;;;10.35;;
8401;SDS011;4238;48.404;9.498;2023-08-21T05:33:23;11.88;;;10.77;;
8401;SDS011;4238;48.404;9.498;2023-08-21T05:35:50;12.52;;;11.23;;
8401;SDS011;4238;48.404;9.498;2023-08-21T05:38:18;12.48;;;11.27;;
8401;SDS011;4238;48.404;9.498;2023-08-21T05:40:45;12.82;;;11.77;;
8401;SDS011;4238;48.404;9.498;2023-08-21T05:43:13;13.07;;;11.88;;
8401;SDS011;4238;48.404;9.498;2023-08-21T05:45:40;13.35;;;12.10;;
8401;SDS011;4238;48.404;9.498;2023-08-21T05:48:07;13.32;;;12.15;;
8401;SDS011;4238;48.404;9.498;2023-08-21T05:50:34;14.15;;;12.77;;
8401;SDS011;4238;48.404;9.498;2023-08-21T05:53:02;13.02;;;11.85;;
8401;SDS011;4238;48.404;9.498;2023-08-21T05:55:29;13.60;;;12.20;;
8401;SDS011;4238;48.404;9.498;2023-08-21T05:57:56;12.73;;;11.68;;
8401;SDS011;4238;48.404;9.498;2023-08-21T06:00:24;12.65;;;11.48;;
8401;SDS011;4238;48.404;9.498;2023-08-21T06:02:51;12.55;;;11.52;;
8401;SDS011;4238;48.404;9.498;2023-08-21T06:05:18;12.00;;;10.82;;
8401;SDS011;4238;48.404;9.498;2023-08-21T06:07:45;12.70;;;11.50;;
8401;SDS011;4238;48.404;9.498;2023-08-21T06:10:11;10.90;;;10.00;;
8401;SDS011;4238;48.404;9.498;2023-08-21T06:12:40;12.18;;;10.68;;
8401;SDS011;4238;48.404;9.498;2023-08-21T06:15:07;11.40;;;10.50;;
8401;SDS011;4238;48.404;9.498;2023-08-21T06:17:36;11.38;;;10.10;;
8401;SDS011;4238;48.404;9.498;2023-08-21T06:20:04;10.95;;;9.63;;
8401;SDS011;4238;48.404;9.498;2023-08-21T06:22:33;10.70;;;9.80;;
8401;SDS011;4238;48.404;9.498;2023-08-21T06:25:00;11.02;;;10.02;;
8401;SDS011;4238;48.404;9.498;2023-08-21T06:27:28;10.88;;;10.00;;
8401;SDS011;4238;48.404;9.498;2023-08-21T06:29:54;10.57;;;9.57;;
8401;SDS011;4238;48.404;9.498;2023-08-21T06:32:21;10.82;;;9.73;;
8401;SDS011;4238;48.404;9.498;2023-08-21T06:34:50;10.73;;;9.70;;
8401;SDS011;4238;48.404;9.498;2023-08-21T06:37:17;10.15;;;9.27;;
8401;SDS011;4238;48.404;9.498;2023-08-21T06:39:43;10.48;;;9.65;;
8401;SDS011;4238;48.404;9.498;2023-08-21T06:42:10;11.20;;;10.05;;
8401;SDS011;4238;48.404;9.498;2023-08-21T06:44:37;10.73;;;9.82;;
8401;SDS011;4238;48.404;9.498;2023-08-21T06:47:04;10.18;;;9.35;;
8401;SDS011;4238;48.404;9.498;2023-08-21T06:49:31;11.18;;;10.18;;
8401;SDS011;4238;48.404;9.498;2023-08-21T06:51:59;10.95;;;9.85;;
8401;SDS011;4238;48.404;9.498;2023-08-21T06:54:26;10.25;;;9.43;;
8401;SDS011;4238;48.404;9.498;2023-08-21T06:56:53;10.85;;;10.02;;
8401;SDS011;4238;48.404;9.498;2023-08-21T06:59:20;10.90;;;9.77;;
8401;SDS011;4238;48.404;9.498;2023-08-21T07:01:47;10.05;;;9.15;;
8401;SDS011;4238;48.404;9.498;2023-08-21T07:04:14;10.85;;;9.85;;
8401;SDS011;4238;48.404;9.498;2023-08-21T07:06:40;10.60;;;9.55;;
8401;SDS011;4238;48.404;9.498;2023-08-21T07:09:09;10.90;;;9.77;;
8401;SDS011;4238;48.404;9.498;2023-08-21T07:11:36;10.23;;;9.25;;
8401;SDS011;4238;48.404;9.498;2023-08-21T07:14:02;9.38;;;8.60;;
8401;SDS011;4238;48.404;9.498;2023-08-21T07:16:29;10.27;;;9.23;;
8401;SDS011;4238;48.404;9.498;2023-08-21T07:18:56;10.40;;;9.30;;
8401;SDS011;4238;48.404;9.498;2023-08-21T07:21:23;9.40;;;8.60;;
8401;SDS011;4238;48.404;9.498;2023-08-21T07:23:50;10.55;;;9.65;;
8401;SDS011;4238;48.404;9.498;2023-08-21T07:26:18;9.90;;;9.07;;
8401;SDS011;4238;48.404;9.498;2023-08-21T07:28:45;11.00;;;8.38;;
8401;SDS011;4238;48.404;9.498;2023-08-21T07:31:12;11.38;;;9.00;;
8401;SDS011;4238;48.404;9.498;2023-08-21T07:33:39;9.70;;;8.80;;
8401;SDS011;4238;48.404;9.498;2023-08-21T07:36:06;9.50;;;8.60;;
8401;SDS011;4238;48.404;9.498;2023-08-21T07:38:33;9.15;;;8.38;;
8401;SDS011;4238;48.404;9.498;2023-08-21T07:41:03;8.95;;;8.25;;
8401;SDS011;4238;48.404;9.498;2023-08-21T07:43:33;8.75;;;8.00;;
8401;SDS011;4238;48.404;9.498;2023-08-21T07:46:03;8.93;;;8.10;;
8401;SDS011;4238;48.404;9.498;2023-08-21T07:48:30;9.00;;;8.20;;
8401;SDS011;4238;48.404;9.498;2023-08-21T07:50:57;8.63;;;7.93;;
8401;SDS011;4238;48.404;9.498;2023-08-21T07:53:24;8.85;;;8.10;;
8401;SDS011;4238;48.404;9.498;2023-08-21T07:55:52;8.57;;;7.88;;
8401;SDS011;4238;48.404;9.498;2023-08-21T07:58:19;9.35;;;8.55;;
8401;SDS011;4238;48.404;9.498;2023-08-21T08:00:47;9.65;;;8.70;;
8401;SDS011;4238;48.404;9.498;2023-08-21T08:03:14;10.30;;;8.75;;
8401;SDS011;4238;48.404;9.498;2023-08-21T08:05:41;9.07;;;8.23;;
8401;SDS011;4238;48.404;9.498;2023-08-21T08:08:08;9.45;;;8.63;;
8401;SDS011;4238;48.404;9.498;2023-08-21T08:10:37;10.48;;;8.63;;
8401;SDS011;4238;48.404;9.498;2023-08-21T08:13:05;8.85;;;8.18;;
8401;SDS011;4238;48.404;9.498;2023-08-21T08:15:32;9.13;;;8.32;;
8401;SDS011;4238;48.404;9.498;2023-08-21T08:18:02;8.50;;;7.75;;
8401;SDS011;4238;48.404;9.498;2023-08-21T08:20:30;8.63;;;7.82;;
8401;SDS011;4238;48.404;9.498;2023-08-21T08:22:57;9.45;;;8.65;;
8401;SDS011;4238;48.404;9.498;2023-08-21T08:25:24;9.20;;;8.38;;
8401;SDS011;4238;48.404;9.498;2023-08-21T08:27:51;9.55;;;8.65;;
8401;SDS011;4238;48.404;9.498;2023-08-21T08:30:18;8.77;;;7.97;;
8401;SDS011;4238;48.404;9.498;2023-08-21T08:32:45;9.05;;;8.10;;
8401;SDS011;4238;48.404;9.498;2023-08-21T08:35:13;8.90;;;8.00;;
8401;SDS011;4238;48.404;9.498;2023-08-21T08:37:40;9.02;;;7.28;;
8401;SDS011;4238;48.404;9.498;2023-08-21T08:40:07;8.77;;;7.97;;
8401;SDS011;4238;48.404;9.498;2023-08-21T08:42:36;8.65;;;7.85;;
8401;SDS011;4238;48.404;9.498;2023-08-21T08:45:03;8.77;;;7.97;;
8401;SDS011;4238;48.404;9.498;2023-08-21T08:47:31;8.82;;;8.13;;
8401;SDS011;4238;48.404;9.498;2023-08-21T08:50:00;7.95;;;7.25;;
8401;SDS011;4238;48.404;9.498;2023-08-21T08:52:30;9.18;;;8.20;;
8401;SDS011;4238;48.404;9.498;2023-08-21T08:55:00;8.75;;;8.05;;
8401;SDS011;4238;48.404;9.498;2023-08-21T08:57:27;8.65;;;7.75;;
8401;SDS011;4238;48.404;9.498;2023-08-21T08:59:54;9.88;;;8.63;;
8401;SDS011;4238;48.404;9.498;2023-08-21T09:02:22;8.75;;;8.00;;
8401;SDS011;4238;48.404;9.498;2023-08-21T09:04:51;8.35;;;7.65;;
8401;SDS011;4238;48.404;9.498;2023-08-21T09:07:18;8.52;;;7.65;;
8401;SDS011;4238;48.404;9.498;2023-08-21T09:09:47;9.23;;;7.35;;
8401;SDS011;4238;48.404;9.498;2023-08-21T09:12:16;8.07;;;7.38;;
8401;SDS011;4238;48.404;9.498;2023-08-21T09:14:43;8.30;;;7.60;;
8401;SDS011;4238;48.404;9.498;2023-08-21T09:17:11;8.52;;;7.80;;
8401;SDS011;4238;48.404;9.498;2023-08-21T09:19:38;8.05;;;7.35;;
8401;SDS011;4238;48.404;9.498;2023-08-21T09:22:09;8.57;;;7.75;;
8401;SDS011;4238;48.404;9.498;2023-08-21T09:24:37;7.90;;;7.20;;
8401;SDS011;4238;48.404;9.498;2023-08-21T09:27:10;9.45;;;8.55;;
8401;SDS011;4238;48.404;9.498;2023-08-21T09:29:41;8.15;;;7.55;;
8401;SDS011;4238;48.404;9.498;2023-08-21T09:32:08;8.48;;;7.68;;
8401;SDS011;4238;48.404;9.498;2023-08-21T09:34:35;8.43;;;7.63;;
8401;SDS011;4238;48.404;9.498;2023-08-21T09:37:04;8.30;;;7.50;;
8401;SDS011;4238;48.404;9.498;2023-08-21T09:39:33;8.25;;;7.45;;
8401;SDS011;4238;48.404;9.498;2023-08-21T09:42:00;8.82;;;7.93;;
8401;SDS011;4238;48.404;9.498;2023-08-21T09:44:29;7.55;;;6.90;;
8401;SDS011;4238;48.404;9.498;2023-08-21T09:47:01;8.80;;;7.63;;
8401;SDS011;4238;48.404;9.498;2023-08-21T09:49:28;8.20;;;7.40;;
8401;SDS011;4238;48.404;9.498;2023-08-21T09:51:56;8.07;;;7.30;;
8401;SDS011;4238;48.404;9.498;2023-08-21T09:54:24;8.65;;;7.90;;
8401;SDS011;4238;48.404;9.498;2023-08-21T09:56:51;8.88;;;7.53;;
8401;SDS011;4238;48.404;9.498;2023-08-21T09:59:18;8.25;;;7.65;;
8401;SDS011;4238;48.404;9.498;2023-08-21T10:01:47;7.85;;;7.15;;
8401;SDS011;4238;48.404;9.498;2023-08-21T10:04:16;10.95;;;7.78;;
8401;SDS011;4238;48.404;9.498;2023-08-21T10:06:44;7.65;;;6.85;;
8401;SDS011;4238;48.404;9.498;2023-08-21T10:09:12;7.88;;;7.18;;
8401;SDS011;4238;48.404;9.498;2023-08-21T10:11:40;7.97;;;7.38;;
8401;SDS011;4238;48.404;9.498;2023-08-21T10:14:09;8.45;;;7.75;;
8401;SDS011;4238;48.404;9.498;2023-08-21T10:16:37;7.45;;;6.78;;
8401;SDS011;4238;48.404;9.498;2023-08-21T10:19:05;8.70;;;7.90;;
8401;SDS011;4238;48.404;9.498;2023-08-21T10:21:34;9.68;;;7.40;;
8401;SDS011;4238;48.404;9.498;2023-08-21T10:24:02;8.88;;;7.93;;
8401;SDS011;4238;48.404;9.498;2023-08-21T10:26:29;8.00;;;7.28;;
8401;SDS011;4238;48.404;9.498;2023-08-21T10:28:58;9.85;;;7.75;;
8401;SDS011;4238;48.404;9.498;2023-08-21T10:31:31;8.20;;;7.40;;
8401;SDS011;4238;48.404;9.498;2023-08-21T10:34:00;8.52;;;7.28;;
8401;SDS011;4238;48.404;9.498;2023-08-21T10:37:02;8.48;;;7.57;;
8401;SDS011;4238;48.404;9.498;2023-08-21T10:39:30;9.02;;;7.70;;
8401;SDS011;4238;48.404;9.498;2023-08-21T10:42:04;8.23;;;7.53;;
8401;SDS011;4238;48.404;9.498;2023-08-21T10:44:35;8.38;;;7.70;;
8401;SDS011;4238;48.404;9.498;2023-08-21T10:47:13;8.90;;;8.07;;
8401;SDS011;4238;48.404;9.498;2023-08-21T10:49:41;8.60;;;7.90;;
8401;SDS011;4238;48.404;9.498;2023-08-21T10:52:10;8.45;;;7.65;;
8401;SDS011;4238;48.404;9.498;2023-08-21T10:54:44;7.32;;;6.72;;
8401;SDS011;4238;48.404;9.498;2023-08-21T10:57:12;8.35;;;7.65;;
8401;SDS011;4238;48.404;9.498;2023-08-21T10:59:48;8.05;;;7.25;;
8401;SDS011;4238;48.404;9.498;2023-08-21T11:02:16;7.57;;;7.07;;
8401;SDS011;4238;48.404;9.498;2023-08-21T11:04:43;8.73;;;7.93;;
8401;SDS011;4238;48.404;9.498;2023-08-21T11:07:11;8.57;;;7.80;;
8401;SDS011;4238;48.404;9.498;2023-08-21T11:09:39;8.60;;;7.90;;
8401;SDS011;4238;48.404;9.498;2023-08-21T11:12:06;8.15;;;7.45;;
8401;SDS011;4238;48.404;9.498;2023-08-21T11:14:34;8.07;;;7.30;;
8401;SDS011;4238;48.404;9.498;2023-08-21T11:17:01;8.20;;;7.50;;
8401;SDS011;4238;48.404;9.498;2023-08-21T11:19:30;8.15;;;7.50;;
8401;SDS011;4238;48.404;9.498;2023-08-21T11:21:57;8.82;;;8.02;;
8401;SDS011;4238;48.404;9.498;2023-08-21T11:24:30;8.27;;;7.68;;
8401;SDS011;4238;48.404;9.498;2023-08-21T11:27:04;8.52;;;7.82;;
8401;SDS011;4238;48.404;9.498;2023-08-21T11:29:32;8.52;;;7.70;;
8401;SDS011;4238;48.404;9.498;2023-08-21T11:32:03;8.25;;;7.55;;
8401;SDS011;4238;48.404;9.498;2023-08-21T11:34:33;9.32;;;8.45;;
8401;SDS011;4238;48.404;9.498;2023-08-21T11:37:00;8.82;;;7.38;;
8401;SDS011;4238;48.404;9.498;2023-08-21T11:39:39;8.63;;;7.55;;
8401;SDS011;4238;48.404;9.498;2023-08-21T11:42:10;8.75;;;7.85;;
8401;SDS011;4238;48.404;9.498;2023-08-21T11:44:46;7.82;;;7.22;;
8401;SDS011;4238;48.404;9.498;2023-08-21T11:47:16;8.80;;;7.95;;
8401;SDS011;4238;48.404;9.498;2023-08-21T11:49:45;7.18;;;6.72;;
8401;SDS011;4238;48.404;9.498;2023-08-21T11:52:17;7.95;;;7.28;;
8401;SDS011;4238;48.404;9.498;2023-08-21T11:54:47;8.55;;;7.85;;
8401;SDS011;4238;48.404;9.498;2023-08-21T11:57:15;8.00;;;7.28;;
8401;SDS011;4238;48.404;9.498;2023-08-21T11:59:42;10.32;;;7.53;;
8401;SDS011;4238;48.404;9.498;2023-08-21T12:02:16;9.05;;;7.63;;
8401;SDS011;4238;48.404;9.498;2023-08-21T12:04:44;11.38;;;7.82;;
8401;SDS011;4238;48.404;9.498;2023-08-21T12:07:12;7.85;;;7.25;;
8401;SDS011;4238;48.404;9.498;2023-08-21T12:09:39;8.18;;;7.40;;
8401;SDS011;4238;48.404;9.498;2023-08-21T12:12:13;11.23;;;7.50;;
8401;SDS011;4238;48.404;9.498;2023-08-21T12:14:40;8.13;;;7.53;;
8401;SDS011;4238;48.404;9.498;2023-08-21T12:17:07;8.55;;;7.40;;
8401;SDS011;4238;48.404;9.498;2023-08-21T12:19:34;7.28;;;6.78;;
8401;SDS011;4238;48.404;9.498;2023-08-21T12:22:01;8.20;;;7.38;;
8401;SDS011;4238;48.404;9.498;2023-08-21T12:24:29;8.23;;;7.53;;
8401;SDS011;4238;48.404;9.498;2023-08-21T12:26:56;7.82;;;7.10;;
8401;SDS011;4238;48.404;9.498;2023-08-21T12:29:24;8.40;;;7.32;;
8401;SDS011;4238;48.404;9.498;2023-08-21T12:31:51;7.38;;;6.80;;
8401;SDS011;4238;48.404;9.498;2023-08-21T12:34:18;8.02;;;7.28;;
8401;SDS011;4238;48.404;9.498;2023-08-21T12:36:45;9.77;;;7.18;;
8401;SDS011;4238;48.404;9.498;2023-08-21T12:39:12;7.63;;;7.05;;
8401;SDS011;4238;48.404;9.498;2023-08-21T12:41:41;10.07;;;7.43;;
8401;SDS011;4238;48.404;9.498;2023-08-21T12:44:08;7.47;;;6.68;;
8401;SDS011;4238;48.404;9.498;2023-08-21T12:46:36;7.53;;;6.82;;
8401;SDS011;4238;48.404;9.498;2023-08-21T12:49:03;7.40;;;6.82;;
8401;SDS011;4238;48.404;9.498;2023-08-21T12:51:30;8.48;;;7.30;;
8401;SDS011;4238;48.404;9.498;2023-08-21T12:53:56;7.20;;;6.63;;
8401;SDS011;4238;48.404;9.498;2023-08-21T12:56:23;8.07;;;7.18;;
8401;SDS011;4238;48.404;9.498;2023-08-21T12:58:50;7.82;;;7.18;;
8401;SDS011;4238;48.404;9.498;2023-08-21T13:01:17;7.38;;;6.70;;
8401;SDS011;4238;48.404;9.498;2023-08-21T13:03:46;7.45;;;6.78;;
8401;SDS011;4238;48.404;9.498;2023-08-21T13:06:13;7.78;;;7.07;;
8401;SDS011;4238;48.404;9.498;2023-08-21T13:08:40;8.00;;;7.35;;
8401;SDS011;4238;48.404;9.498;2023-08-21T13:11:08;8.70;;;7.85;;
8401;SDS011;4238;48.404;9.498;2023-08-21T13:13:35;8.40;;;7.70;;
8401;SDS011;4238;48.404;9.498;2023-08-21T13:16:02;8.57;;;7.78;;
8401;SDS011;4238;48.404;9.498;2023-08-21T13:18:29;9.00;;;7.65;;
8401;SDS011;4238;48.404;9.498;2023-08-21T13:20:57;8.07;;;7.30;;
8401;SDS011;4238;48.404;9.498;2023-08-21T13:23:24;8.55;;;7.68;;
8401;SDS011;4238;48.404;9.498;2023-08-21T13:25:51;8.27;;;7.43;;
8401;SDS011;4238;48.404;9.498;2023-08-21T13:28:18;8.68;;;7.90;;
8401;SDS011;4238;48.404;9.498;2023-08-21T13:30:45;8.25;;;7.43;;
8401;SDS011;4238;48.404;9.498;2023-08-21T13:33:13;8.05;;;7.30;;
8401;SDS011;4238;48.404;9.498;2023-08-21T13:35:43;8.40;;;7.63;;
8401;SDS011;4238;48.404;9.498;2023-08-21T13:38:11;7.75;;;7.15;;
8401;SDS011;4238;48.404;9.498;2023-08-21T13:40:38;8.23;;;7.50;;
8401;SDS011;4238;48.404;9.498;2023-08-21T13:43:06;7.70;;;7.03;;
8401;SDS011;4238;48.404;9.498;2023-08-21T13:45:35;7.43;;;6.72;;
8401;SDS011;4238;48.404;9.498;2023-08-21T13:48:02;8.45;;;7.65;;
8401;SDS011;4238;48.404;9.498;2023-08-21T13:50:30;8.48;;;7.60;;
8401;SDS011;4238;48.404;9.498;2023-08-21T13:52:57;9.10;;;8.30;;
8401;SDS011;4238;48.404;9.498;2023-08-21T13:55:25;9.68;;;8.02;;
8401;SDS011;4238;48.404;9.498;2023-08-21T13:57:52;8.73;;;7.90;;
8401;SDS011;4238;48.404;9.498;2023-08-21T14:00:19;8.20;;;7.43;;
8401;SDS011;4238;48.404;9.498;2023-08-21T14:02:47;8.57;;;7.65;;
8401;SDS011;4238;48.404;9.498;2023-08-21T14:05:14;8.75;;;8.10;;
8401;SDS011;4238;48.404;9.498;2023-08-21T14:07:40;7.80;;;7.00;;
8401;SDS011;4238;48.404;9.498;2023-08-21T14:10:08;8.18;;;7.43;;
8401;SDS011;4238;48.404;9.498;2023-08-21T14:12:36;8.25;;;7.45;;
8401;SDS011;4238;48.404;9.498;2023-08-21T14:15:04;8.48;;;7.72;;
8401;SDS011;4238;48.404;9.498;2023-08-21T14:17:31;8.55;;;7.72;;
8401;SDS011;4238;48.404;9.498;2023-08-21T14:19:58;8.52;;;7.72;;
8401;SDS011;4238;48.404;9.498;2023-08-21T14:22:25;8.90;;;8.10;;
8401;SDS011;4238;48.404;9.498;2023-08-21T14:24:52;8.00;;;7.20;;
8401;SDS011;4238;48.404;9.498;2023-08-21T14:27:19;8.70;;;7.90;;
8401;SDS011;4238;48.404;9.498;2023-08-21T14:29:47;8.15;;;7.45;;
8401;SDS011;4238;48.404;9.498;2023-08-21T14:32:14;8.43;;;7.63;;
8401;SDS011;4238;48.404;9.498;2023-08-21T14:34:43;7.75;;;7.25;;
8401;SDS011;4238;48.404;9.498;2023-08-21T14:37:10;8.60;;;7.80;;
8401;SDS011;4238;48.404;9.498;2023-08-21T14:39:40;8.75;;;7.93;;
8401;SDS011;4238;48.404;9.498;2023-08-21T14:42:07;7.82;;;7.25;;
8401;SDS011;4238;48.404;9.498;2023-08-21T14:44:34;8.07;;;7.30;;
8401;SDS011;4238;48.404;9.498;2023-08-21T14:47:03;8.50;;;7.90;;
8401;SDS011;4238;48.404;9.498;2023-08-21T14:49:30;7.72;;;7.03;;
8401;SDS011;4238;48.404;9.498;2023-08-21T14:51:57;8.45;;;7.72;;
8401;SDS011;4238;48.404;9.498;2023-08-21T14:54:24;7.97;;;7.38;;
8401;SDS011;4238;48.404;9.498;2023-08-21T14:56:51;8.38;;;7.78;;
8401;SDS011;4238;48.404;9.498;2023-08-21T14:59:18;8.55;;;7.85;;
8401;SDS011;4238;48.404;9.498;2023-08-21T15:01:44;8.63;;;7.85;;
8401;SDS011;4238;48.404;9.498;2023-08-21T15:04:13;8.75;;;7.93;;
8401;SDS011;4238;48.404;9.498;2023-08-21T15:06:39;8.05;;;7.43;;
8401;SDS011;4238;48.404;9.498;2023-08-21T15:09:07;8.77;;;7.93;;
8401;SDS011;4238;48.404;9.498;2023-08-21T15:11:35;7.78;;;7.10;;
8401;SDS011;4238;48.404;9.498;2023-08-21T15:14:02;8.55;;;7.60;;
8401;SDS011;4238;48.404;9.498;2023-08-21T15:16:29;8.93;;;7.72;;
8401;SDS011;4238;48.404;9.498;2023-08-21T15:18:56;9.13;;;7.38;;
8401;SDS011;4238;48.404;9.498;2023-08-21T15:21:25;8.75;;;7.88;;
8401;SDS011;4238;48.404;9.498;2023-08-21T15:23:52;8.18;;;7.53;;
8401;SDS011;4238;48.404;9.498;2023-08-21T15:26:17;8.63;;;7.72;;
8401;SDS011;4238;48.404;9.498;2023-08-21T15:28:45;8.73;;;7.68;;
8401;SDS011;4238;48.404;9.498;2023-08-21T15:31:12;8.98;;;7.50;;
8401;SDS011;4238;48.404;9.498;2023-08-21T15:33:39;8.52;;;7.70;;
8401;SDS011;4238;48.404;9.498;2023-08-21T15:36:05;7.65;;;6.93;;
8401;SDS011;4238;48.404;9.498;2023-08-21T15:38:34;8.63;;;7.75;;
8401;SDS011;4238;48.404;9.498;2023-08-21T15:41:00;9.20;;;8.30;;
8401;SDS011;4238;48.404;9.498;2023-08-21T15:43:27;7.65;;;7.00;;
8401;SDS011;4238;48.404;9.498;2023-08-21T15:45:54;7.68;;;7.10;;
8401;SDS011;4238;48.404;9.498;2023-08-21T15:48:21;8.40;;;7.60;;
8401;SDS011;4238;48.404;9.498;2023-08-21T15:50:48;8.00;;;7.13;;
8401;SDS011;4238;48.404;9.498;2023-08-21T15:53:15;9.73;;;7.82;;
8401;SDS011;4238;48.404;9.498;2023-08-21T15:55:43;7.93;;;7.22;;
8401;SDS011;4238;48.404;9.498;2023-08-21T15:58:10;7.93;;;7.22;;
8401;SDS011;4238;48.404;9.498;2023-08-21T16:00:37;8.30;;;7.47;;
8401;SDS011;4238;48.404;9.498;2023-08-21T16:03:04;8.32;;;7.63;;
8401;SDS011;4238;48.404;9.498;2023-08-21T16:05:31;8.27;;;7.53;;
8401;SDS011;4238;48.404;9.498;2023-08-21T16:07:58;8.32;;;7.55;;
8401;SDS011;4238;48.404;9.498;2023-08-21T16:10:25;8.05;;;7.35;;
8401;SDS011;4238;48.404;9.498;2023-08-21T16:12:53;8.35;;;7.50;;
8401;SDS011;4238;48.404;9.498;2023-08-21T16:15:20;7.97;;;7.22;;
8401;SDS011;4238;48.404;9.498;2023-08-21T16:17:47;7.93;;;7.32;;
8401;SDS011;4238;48.404;9.498;2023-08-21T16:20:15;9.07;;;7.75;;
8401;SDS011;4238;48.404;9.498;2023-08-21T16:22:42;8.48;;;7.88;;
8401;SDS011;4238;48.404;9.498;2023-08-21T16:25:09;8.05;;;7.35;;
8401;SDS011;4238;48.404;9.498;2023-08-21T16:27:38;8.52;;;7.82;;
8401;SDS011;4238;48.404;9.498;2023-08-21T16:30:07;7.97;;;7.28;;
8401;SDS011;4238;48.404;9.498;2023-08-21T16:32:34;8.07;;;7.30;;
8401;SDS011;4238;48.404;9.498;2023-08-21T16:35:01;8.50;;;7.35;;
8401;SDS011;4238;48.404;9.498;2023-08-21T16:37:28;10.77;;;8.00;;
8401;SDS011;4238;48.404;9.498;2023-08-21T16:39:55;8.93;;;8.13;;
8401;SDS011;4238;48.404;9.498;2023-08-21T16:42:22;8.23;;;7.53;;
8401;SDS011;4238;48.404;9.498;2023-08-21T16:44:49;8.73;;;7.95;;
8401;SDS011;4238;48.404;9.498;2023-08-21T16:47:17;8.15;;;7.35;;
8401;SDS011;4238;48.404;9.498;2023-08-21T16:49:44;11.15;;;7.63;;
8401;SDS011;4238;48.404;9.498;2023-08-21T16:52:11;8.57;;;7.75;;
8401;SDS011;4238;48.404;9.498;2023-08-21T16:54:38;7.53;;;6.95;;
8401;SDS011;4238;48.404;9.498;2023-08-21T16:57:05;8.18;;;7.47;;
8401;SDS011;4238;48.404;9.498;2023-08-21T16:59:32;8.35;;;7.65;;
8401;SDS011;4238;48.404;9.498;2023-08-21T17:01:59;8.15;;;7.55;;
8401;SDS011;4238;48.404;9.498;2023-08-21T17:04:27;8.10;;;7.38;;
8401;SDS011;4238;48.404;9.498;2023-08-21T17:06:54;8.15;;;7.38;;
8401;SDS011;4238;48.404;9.498;2023-08-21T17:09:21;8.32;;;7.50;;
8401;SDS011;4238;48.404;9.498;2023-08-21T17:11:54;8.38;;;7.60;;
8401;SDS011;4238;48.404;9.498;2023-08-21T17:14:21;8.85;;;7.95;;
8401;SDS011;4238;48.404;9.498;2023-08-21T17:16:48;8.93;;;8.02;;
8401;SDS011;4238;48.404;9.498;2023-08-21T17:19:15;9.25;;;7.55;;
8401;SDS011;4238;48.404;9.498;2023-08-21T17:21:43;9.68;;;8.13;;
8401;SDS011;4238;48.404;9.498;2023-08-21T17:24:10;9.00;;;8.20;;
8401;SDS011;4238;48.404;9.498;2023-08-21T17:26:37;9.60;;;8.75;;
8401;SDS011;4238;48.404;9.498;2023-08-21T17:29:04;8.65;;;7.93;;
8401;SDS011;4238;48.404;9.498;2023-08-21T17:31:30;8.18;;;7.53;;
8401;SDS011;4238;48.404;9.498;2023-08-21T17:33:57;7.95;;;7.25;;
8401;SDS011;4238;48.404;9.498;2023-08-21T17:36:24;8.60;;;7.85;;
8401;SDS011;4238;48.404;9.498;2023-08-21T17:38:52;8.55;;;7.85;;
8401;SDS011;4238;48.404;9.498;2023-08-21T17:41:19;8.73;;;8.02;;
8401;SDS011;4238;48.404;9.498;2023-08-21T17:43:46;8.35;;;7.57;;
8401;SDS011;4238;48.404;9.498;2023-08-21T17:46:13;8.75;;;7.97;;
8401;SDS011;4238;48.404;9.498;2023-08-21T17:48:41;8.90;;;8.13;;
8401;SDS011;4238;48.404;9.498;2023-08-21T17:51:09;8.50;;;7.75;;
8401;SDS011;4238;48.404;9.498;2023-08-21T17:53:36;9.10;;;8.30;;
8401;SDS011;4238;48.404;9.498;2023-08-21T17:56:05;10.90;;;8.00;;
8401;SDS011;4238;48.404;9.498;2023-08-21T17:58:32;9.60;;;7.78;;
8401;SDS011;4238;48.404;9.498;2023-08-21T18:01:00;8.52;;;7.72;;
8401;SDS011;4238;48.404;9.498;2023-08-21T18:03:27;8.77;;;7.93;;
8401;SDS011;4238;48.404;9.498;2023-08-21T18:05:53;8.30;;;7.68;;
8401;SDS011;4238;48.404;9.498;2023-08-21T18:08:20;8.80;;;7.90;;
8401;SDS011;4238;48.404;9.498;2023-08-21T18:10:47;8.65;;;7.80;;
8401;SDS011;4238;48.404;9.498;2023-08-21T18:13:16;9.57;;;8.68;;
8401;SDS011;4238;48.404;9.498;2023-08-21T18:15:43;9.07;;;7.75;;
8401;SDS011;4238;48.404;9.498;2023-08-21T18:18:14;8.98;;;8.18;;
8401;SDS011;4238;48.404;9.498;2023-08-21T18:20:47;8.13;;;7.38;;
8401;SDS011;4238;48.404;9.498;2023-08-21T18:23:16;8.73;;;7.93;;
8401;SDS011;4238;48.404;9.498;2023-08-21T18:25:44;8.30;;;7.57;;
8401;SDS011;4238;48.404;9.498;2023-08-21T18:28:11;8.60;;;7.75;;
8401;SDS011;4238;48.404;9.498;2023-08-21T18:30:40;8.25;;;7.63;;
8401;SDS011;4238;48.404;9.498;2023-08-21T18:33:07;8.55;;;7.82;;
8401;SDS011;4238;48.404;9.498;2023-08-21T18:35:35;8.45;;;7.82;;
8401;SDS011;4238;48.404;9.498;2023-08-21T18:38:03;9.13;;;8.35;;
8401;SDS011;4238;48.404;9.498;2023-08-21T18:40:31;9.38;;;8.48;;
8401;SDS011;4238;48.404;9.498;2023-08-21T18:42:58;9.73;;;8.27;;
8401;SDS011;4238;48.404;9.498;2023-08-21T18:45:25;9.43;;;8.63;;
8401;SDS011;4238;48.404;9.498;2023-08-21T18:47:53;8.98;;;8.02;;
8401;SDS011;4238;48.404;9.498;2023-08-21T18:50:31;9.25;;;8.32;;
8401;SDS011;4238;48.404;9.498;2023-08-21T18:52:59;8.80;;;7.97;;
8401;SDS011;4238;48.404;9.498;2023-08-21T18:55:26;9.13;;;8.32;;
8401;SDS011;4238;48.404;9.498;2023-08-21T18:57:53;9.40;;;8.50;;
8401;SDS011;4238;48.404;9.498;2023-08-21T19:00:20;8.45;;;7.63;;
8401;SDS011;4238;48.404;9.498;2023-08-21T19:02:47;8.43;;;7.72;;
8401;SDS011;4238;48.404;9.498;2023-08-21T19:05:15;9.65;;;8.70;;
8401;SDS011;4238;48.404;9.498;2023-08-21T19:07:42;10.07;;;7.85;;
8401;SDS011;4238;48.404;9.498;2023-08-21T19:10:09;11.80;;;8.88;;
8401;SDS011;4238;48.404;9.498;2023-08-21T19:12:36;10.77;;;9.68;;
8401;SDS011;4238;48.404;9.498;2023-08-21T19:15:03;9.73;;;8.73;;
8401;SDS011;4238;48.404;9.498;2023-08-21T19:17:30;9.48;;;8.45;;
8401;SDS011;4238;48.404;9.498;2023-08-21T19:19:57;9.43;;;8.48;;